createdAt,value
2019-06-20T00:01:58.140Z,58.90
2019-06-20T00:04:52.405Z,58.90
2019-06-20T00:07:47.230Z,58.90
2019-06-20T00:10:41.674Z,58.90
2019-06-20T00:13:36.193Z,58.90
2019-06-20T00:16:30.614Z,59.00
2019-06-20T00:19:24.908Z,59.10
2019-06-20T00:22:19.165Z,59.20
2019-06-20T00:25:13.573Z,59.20
2019-06-20T00:28:08.150Z,59.80
2019-06-20T00:31:03.559Z,59.20
2019-06-20T00:33:57.923Z,59.20
2019-06-20T00:36:53.637Z,59.30
2019-06-20T00:39:47.868Z,59.30
2019-06-20T00:42:42.697Z,59.30
2019-06-20T00:45:37.716Z,59.30
2019-06-20T00:48:32.182Z,59.30
2019-06-20T00:51:26.838Z,59.30
2019-06-20T00:54:21.446Z,59.40
2019-06-20T00:57:15.767Z,59.60
2019-06-20T01:00:12.058Z,59.50
2019-06-20T01:03:06.721Z,59.60
2019-06-20T01:06:00.982Z,59.60
2019-06-20T01:08:55.600Z,59.60
2019-06-20T01:11:49.991Z,59.60
2019-06-20T01:14:44.215Z,59.80
2019-06-20T01:17:38.838Z,59.60
2019-06-20T01:20:33.512Z,59.60
2019-06-20T01:23:27.790Z,59.50
2019-06-20T01:26:22.178Z,59.50
2019-06-20T01:29:16.408Z,59.50
2019-06-20T01:32:11.053Z,59.50
2019-06-20T01:35:06.855Z,59.50
2019-06-20T01:38:01.573Z,59.50
2019-06-20T01:40:56.154Z,59.60
2019-06-20T01:43:51.296Z,59.50
2019-06-20T01:46:45.771Z,59.40
2019-06-20T01:49:40.742Z,59.40
2019-06-20T01:52:35.175Z,59.30
2019-06-20T01:55:31.153Z,59.40
2019-06-20T01:58:25.775Z,59.40
2019-06-20T02:01:20.136Z,59.30
2019-06-20T02:04:14.913Z,59.30
2019-06-20T02:07:09.850Z,59.30
2019-06-20T02:10:04.189Z,59.30
2019-06-20T02:12:58.751Z,59.20
2019-06-20T02:15:53.308Z,59.30
2019-06-20T02:18:47.878Z,59.30
2019-06-20T02:21:42.240Z,59.20
2019-06-20T02:24:37.444Z,59.20
2019-06-20T02:27:31.711Z,59.00
2019-06-20T02:30:26.543Z,59.10
2019-06-20T02:33:20.890Z,59.00
2019-06-20T02:36:17.392Z,58.90
2019-06-20T02:39:12.963Z,59.00
2019-06-20T02:42:07.471Z,58.80
2019-06-20T02:45:02.212Z,58.70
2019-06-20T02:47:57.026Z,58.80
2019-06-20T02:50:51.315Z,58.80
2019-06-20T02:53:47.004Z,58.70
2019-06-20T02:56:41.202Z,58.80
2019-06-20T02:59:36.014Z,58.80
2019-06-20T03:02:30.326Z,58.80
2019-06-20T03:05:24.895Z,58.80
2019-06-20T03:08:19.219Z,59.20
2019-06-20T03:11:13.880Z,58.90
2019-06-20T03:14:08.158Z,59.00
2019-06-20T03:17:03.124Z,58.90
2019-06-20T03:19:57.177Z,58.90
2019-06-20T03:22:51.638Z,58.90
2019-06-20T03:25:47.814Z,58.80
2019-06-20T03:28:41.872Z,58.70
2019-06-20T03:31:36.191Z,58.60
2019-06-20T03:34:31.124Z,58.50
2019-06-20T03:37:26.320Z,58.40
2019-06-20T03:40:21.729Z,58.30
2019-06-20T03:43:15.982Z,58.20
2019-06-20T03:46:11.396Z,58.20
2019-06-20T03:49:06.153Z,58.20
2019-06-20T03:52:01.951Z,57.90
2019-06-20T03:54:56.716Z,58.00
2019-06-20T03:57:51.601Z,58.00
2019-06-20T04:00:46.041Z,58.10
2019-06-20T04:03:40.400Z,58.00
2019-06-20T04:06:34.491Z,57.80
2019-06-20T04:09:28.650Z,57.70
2019-06-20T04:12:25.193Z,57.40
2019-06-20T04:15:20.031Z,57.30
2019-06-20T04:18:14.507Z,57.10
2019-06-20T04:21:09.629Z,57.10
2019-06-20T04:24:04.130Z,56.90
2019-06-20T04:26:59.530Z,56.70
2019-06-20T04:29:54.146Z,56.50
2019-06-20T04:32:49.211Z,56.40
2019-06-20T04:35:43.861Z,56.30
2019-06-20T04:38:39.527Z,56.30
2019-06-20T04:41:35.868Z,56.20
2019-06-20T04:44:45.956Z,55.90
2019-06-20T04:47:40.506Z,55.70
2019-06-20T04:50:36.040Z,55.40
2019-06-20T04:53:30.827Z,55.00
2019-06-20T04:56:25.204Z,54.80
2019-06-20T04:59:19.831Z,54.70
2019-06-20T05:02:43.854Z,54.60
2019-06-20T05:05:37.904Z,54.40
2019-06-20T05:08:33.230Z,54.20
2019-06-20T05:11:31.030Z,54.00
2019-06-20T05:14:25.522Z,53.60
2019-06-20T05:17:20.423Z,53.30
2019-06-20T05:20:16.678Z,53.00
2019-06-20T05:23:20.109Z,53.10
2019-06-20T05:26:23.940Z,53.00
2019-06-20T05:29:19.281Z,52.80
2019-06-20T05:32:16.647Z,52.60
2019-06-20T05:35:15.781Z,52.40
2019-06-20T05:38:11.231Z,52.10
2019-06-20T05:41:18.767Z,52.00
2019-06-20T05:44:13.329Z,51.70
2019-06-20T05:47:13.594Z,51.50
2019-06-20T05:50:04.938Z,51.30
2019-06-20T05:52:59.073Z,51.10
2019-06-20T05:55:53.790Z,50.90
2019-06-20T05:58:48.692Z,51.00
2019-06-20T06:01:44.614Z,50.40
2019-06-20T06:04:40.819Z,50.10
2019-06-20T06:07:36.397Z,49.80
2019-06-20T06:10:38.095Z,49.80
2019-06-20T06:13:33.506Z,49.70
2019-06-20T06:16:28.586Z,49.30
2019-06-20T06:19:28.302Z,49.00
2019-06-20T06:22:37.239Z,48.70
2019-06-20T06:25:33.545Z,48.70
2019-06-20T06:28:36.243Z,48.40
2019-06-20T06:31:33.110Z,48.10
2019-06-20T06:34:33.070Z,47.90
2019-06-20T06:37:32.797Z,47.80
2019-06-20T06:40:30.867Z,47.80
2019-06-20T06:43:26.811Z,47.60
2019-06-20T06:46:25.397Z,47.50
2019-06-20T06:49:21.997Z,47.30
2019-06-20T06:52:17.056Z,47.10
2019-06-20T06:55:12.458Z,46.90
2019-06-20T06:58:09.660Z,46.70
2019-06-20T07:01:04.812Z,46.50
2019-06-20T07:04:12.955Z,46.50
2019-06-20T07:07:09.528Z,46.40
2019-06-20T07:10:06.246Z,46.20
2019-06-20T07:13:02.964Z,46.00
2019-06-20T07:16:05.721Z,46.20
2019-06-20T07:19:25.250Z,46.10
2019-06-20T07:22:20.459Z,45.80
2019-06-20T07:25:19.147Z,45.60
2019-06-20T07:28:17.418Z,44.90
2019-06-20T07:31:24.073Z,44.80
2019-06-20T07:34:51.731Z,44.60
2019-06-20T07:41:24.298Z,43.90
2019-06-20T07:44:38.023Z,43.60
2019-06-20T07:47:33.737Z,43.20
2019-06-20T07:50:29.872Z,43.20
2019-06-20T07:53:24.622Z,43.20
2019-06-20T07:56:19.968Z,43.10
2019-06-20T07:59:15.468Z,43.20
2019-06-20T08:02:24.877Z,43.20
2019-06-20T08:05:21.610Z,43.20
2019-06-20T08:08:15.976Z,43.10
2019-06-20T08:11:12.342Z,43.10
2019-06-20T08:14:07.094Z,43.40
2019-06-20T08:17:03.751Z,43.60
2019-06-20T08:19:57.769Z,43.70
2019-06-20T08:22:53.719Z,43.80
2019-06-20T08:25:48.336Z,43.60
2019-06-20T08:28:44.120Z,43.90
2019-06-20T08:31:44.439Z,43.90
2019-06-20T08:34:44.578Z,43.40
2019-06-20T08:37:39.522Z,43.10
2019-06-20T08:40:42.778Z,42.70
2019-06-20T08:43:48.193Z,42.40
2019-06-20T08:46:44.788Z,42.00
2019-06-20T08:49:40.333Z,41.90
2019-06-20T08:52:38.372Z,41.90
2019-06-20T08:55:35.301Z,41.00
2019-06-20T09:18:07.388Z,40.70
2019-06-20T09:21:03.719Z,40.60
2019-06-20T09:24:01.001Z,40.30
2019-06-20T09:27:04.660Z,40.50
2019-06-20T09:30:03.511Z,40.70
2019-06-20T09:33:01.206Z,40.90
2019-06-20T09:36:01.272Z,40.90
2019-06-20T09:39:03.805Z,41.00
2019-06-20T09:41:59.566Z,41.20
2019-06-20T09:44:56.403Z,41.40
2019-06-20T09:47:55.946Z,41.60
2019-06-20T09:50:57.010Z,41.70
2019-06-20T09:53:56.272Z,41.50
2019-06-20T09:56:55.374Z,41.60
2019-06-20T10:00:03.278Z,41.70
2019-06-20T10:02:48.930Z,41.60
2019-06-20T10:06:14.571Z,41.60
2019-06-20T10:09:20.835Z,41.50
2019-06-20T10:12:25.018Z,41.50
2019-06-20T10:15:28.182Z,41.70
2019-06-20T10:18:25.405Z,41.70
2019-06-20T10:21:22.534Z,41.70
2019-06-20T10:24:19.829Z,41.70
2019-06-20T10:27:17.002Z,41.60
2019-06-20T10:30:16.232Z,41.60
2019-06-20T10:33:13.153Z,41.50
2019-06-20T10:36:08.723Z,41.50
2019-06-20T10:39:09.909Z,41.60
2019-06-20T10:42:05.331Z,41.50
2019-06-20T10:45:03.498Z,41.60
2019-06-20T10:48:04.765Z,41.60
2019-06-20T10:51:19.120Z,41.60
2019-06-20T10:54:23.439Z,41.50
2019-06-20T10:57:22.427Z,41.40
2019-06-20T11:00:31.816Z,41.40
2019-06-20T11:03:36.439Z,41.40
2019-06-20T11:06:43.192Z,41.80
2019-06-20T11:09:52.241Z,42.10
2019-06-20T11:12:55.599Z,42.30
2019-06-20T11:15:53.535Z,42.70
2019-06-20T11:18:49.551Z,43.00
2019-06-20T11:21:45.806Z,43.10
2019-06-20T11:24:43.298Z,43.30
2019-06-20T11:27:38.859Z,43.40
2019-06-20T11:30:46.745Z,43.40
2019-06-20T11:33:36.573Z,43.70
2019-06-20T11:36:31.036Z,43.80
2019-06-20T11:39:26.735Z,43.90
2019-06-20T11:42:33.158Z,43.90
2019-06-20T11:45:28.761Z,43.70
2019-06-20T11:48:26.389Z,43.70
2019-06-20T11:51:23.139Z,44.10
2019-06-20T11:54:19.067Z,44.40
2019-06-20T11:57:14.478Z,44.60
2019-06-20T12:00:13.328Z,44.70
2019-06-20T12:03:09.270Z,44.70
2019-06-20T12:06:06.544Z,44.70
2019-06-20T12:09:05.743Z,45.00
2019-06-20T12:12:01.040Z,45.30
2019-06-20T12:14:58.902Z,45.40
2019-06-20T12:17:55.149Z,45.50
2019-06-20T12:20:52.617Z,45.70
2019-06-20T12:23:49.021Z,46.10
2019-06-20T12:26:46.862Z,46.10
2019-06-20T12:29:42.394Z,46.10
2019-06-20T12:32:42.359Z,46.10
2019-06-20T12:35:42.714Z,46.20
2019-06-20T12:38:50.776Z,46.40
2019-06-20T12:41:53.785Z,46.60
2019-06-20T12:44:50.835Z,46.80
2019-06-20T12:48:11.849Z,46.80
2019-06-20T12:51:07.909Z,46.80
2019-06-20T12:54:31.691Z,46.70
2019-06-20T12:57:26.761Z,46.80
2019-06-20T13:00:22.514Z,47.00
2019-06-20T13:03:18.042Z,47.20
2019-06-20T13:06:13.766Z,47.10
2019-06-20T13:09:10.673Z,47.20
2019-06-20T13:12:06.687Z,47.50
2019-06-20T13:15:01.813Z,47.70
2019-06-20T13:17:58.733Z,47.70
2019-06-20T13:20:53.912Z,47.80
2019-06-20T13:23:49.836Z,47.90
2019-06-20T13:26:45.493Z,47.90
2019-06-20T13:29:40.789Z,48.10
2019-06-20T13:32:36.510Z,48.10
2019-06-20T13:35:31.965Z,48.10
2019-06-20T13:38:27.007Z,48.20
2019-06-20T13:41:23.685Z,48.10
2019-06-20T13:44:19.560Z,48.10
2019-06-20T13:47:14.487Z,48.10
2019-06-20T13:50:10.831Z,48.00
2019-06-20T13:53:06.192Z,48.00
2019-06-20T13:56:01.561Z,47.80
2019-06-20T13:58:57.709Z,47.80
2019-06-20T14:02:05.893Z,47.80
2019-06-20T14:04:50.742Z,47.90
2019-06-20T14:07:48.336Z,47.90
2019-06-20T14:10:44.148Z,47.80
2019-06-20T14:13:41.076Z,47.70
2019-06-20T14:16:35.687Z,47.60
2019-06-20T14:19:30.879Z,47.70
2019-06-20T14:22:26.226Z,47.70
2019-06-20T14:25:22.738Z,47.70
2019-06-20T14:28:19.057Z,47.70
2019-06-20T14:31:18.615Z,47.90
2019-06-20T14:34:16.053Z,47.90
2019-06-20T14:37:11.500Z,47.80
2019-06-20T14:40:06.763Z,47.90
2019-06-20T14:43:03.226Z,48.00
2019-06-20T14:45:58.723Z,48.20
2019-06-20T14:48:54.246Z,48.40
2019-06-20T14:51:50.124Z,48.60
2019-06-20T14:54:45.926Z,48.70
2019-06-20T14:57:44.653Z,48.80
2019-06-20T15:00:40.192Z,48.90
2019-06-20T15:03:35.597Z,48.90
2019-06-20T15:06:31.596Z,49.40
2019-06-20T15:09:26.751Z,50.00
2019-06-20T15:12:22.460Z,51.20
2019-06-20T15:15:20.416Z,52.20
2019-06-20T15:18:18.520Z,53.00
2019-06-20T15:21:14.013Z,53.70
2019-06-20T15:24:09.323Z,54.00
2019-06-20T15:27:04.661Z,55.40
2019-06-20T15:29:59.895Z,55.70
2019-06-20T15:33:07.495Z,56.20
2019-06-20T15:35:53.419Z,56.80
2019-06-20T15:38:49.431Z,57.20
2019-06-20T15:41:44.717Z,57.60
2019-06-20T15:44:40.446Z,58.00
2019-06-20T15:47:35.236Z,58.40
2019-06-20T15:50:30.302Z,59.00
2019-06-20T15:53:25.545Z,59.00
2019-06-20T15:56:20.538Z,59.90
2019-06-20T15:59:18.119Z,59.60
2019-06-20T16:02:13.113Z,59.80
2019-06-20T16:05:09.561Z,60.40
2019-06-20T16:08:05.184Z,60.50
2019-06-20T16:11:00.082Z,60.70
2019-06-20T16:13:56.439Z,61.00
2019-06-20T16:16:51.905Z,61.30
2019-06-20T16:19:47.091Z,61.50
2019-06-20T16:22:41.823Z,61.70
2019-06-20T16:25:38.385Z,62.10
2019-06-20T16:28:33.924Z,62.40
2019-06-20T16:31:28.870Z,62.70
2019-06-20T16:34:23.914Z,63.10
2019-06-20T16:37:19.448Z,63.00
2019-06-20T16:40:15.288Z,63.10
2019-06-20T16:43:10.530Z,63.00
2019-06-20T16:46:06.739Z,63.20
2019-06-20T16:49:01.528Z,63.40
2019-06-20T16:51:56.262Z,63.60
2019-06-20T16:54:51.886Z,63.80
2019-06-20T16:57:46.679Z,64.00
2019-06-20T17:00:42.023Z,64.30
2019-06-20T17:03:41.558Z,64.50
2019-06-20T17:06:34.745Z,64.60
2019-06-20T17:09:30.703Z,64.80
2019-06-20T17:12:26.080Z,64.90
2019-06-20T17:15:22.844Z,65.00
2019-06-20T17:18:20.485Z,65.20
2019-06-20T17:21:17.760Z,65.20
2019-06-20T17:24:12.841Z,65.30
2019-06-20T17:27:09.722Z,65.10
2019-06-20T17:30:05.431Z,65.10
2019-06-20T17:33:00.671Z,65.20
2019-06-20T17:35:56.421Z,65.10
2019-06-20T17:38:51.398Z,65.10
2019-06-20T17:41:54.870Z,65.00
2019-06-20T17:44:42.657Z,65.00
2019-06-20T17:47:38.324Z,65.10
2019-06-20T17:50:34.862Z,65.20
2019-06-20T17:53:31.393Z,65.20
2019-06-20T17:56:25.845Z,65.20
2019-06-20T17:59:22.665Z,65.20
2019-06-20T18:02:16.789Z,65.30
2019-06-20T18:05:12.394Z,65.40
2019-06-20T18:08:15.107Z,65.50
2019-06-20T18:11:03.736Z,65.60
2019-06-20T18:13:58.956Z,65.60
2019-06-20T18:16:54.366Z,65.70
2019-06-20T18:19:49.465Z,65.70
2019-06-20T18:22:44.745Z,65.80
2019-06-20T18:25:39.852Z,65.90
2019-06-20T18:28:36.099Z,66.00
2019-06-20T18:31:31.055Z,66.20
2019-06-20T18:34:30.087Z,66.30
2019-06-20T18:37:31.451Z,66.50
2019-06-20T18:40:21.299Z,66.70
2019-06-20T18:43:16.593Z,66.70
2019-06-20T18:46:13.023Z,66.80
2019-06-20T18:49:07.941Z,66.80
2019-06-20T18:52:03.082Z,66.80
2019-06-20T18:54:58.116Z,66.80
2019-06-20T18:57:52.966Z,67.00
2019-06-20T19:00:47.824Z,67.00
2019-06-20T19:03:42.519Z,67.10
2019-06-20T19:06:38.612Z,67.10
2019-06-20T19:09:33.517Z,67.20
2019-06-20T19:12:28.059Z,67.70
2019-06-20T19:15:22.953Z,67.00
2019-06-20T19:18:18.825Z,67.00
2019-06-20T19:21:13.781Z,66.90
2019-06-20T19:24:08.654Z,66.70
2019-06-20T19:27:03.751Z,66.70
2019-06-20T19:29:58.729Z,66.80
2019-06-20T19:32:53.817Z,66.80
2019-06-20T19:35:48.597Z,66.90
2019-06-20T19:38:43.521Z,66.80
2019-06-20T19:41:38.246Z,66.80
2019-06-20T19:44:32.777Z,66.80
2019-06-20T19:47:28.473Z,66.80
2019-06-20T19:50:23.723Z,66.80
2019-06-20T19:53:18.734Z,66.70
2019-06-20T19:56:15.273Z,66.60
2019-06-20T19:59:10.257Z,66.60
2019-06-20T20:02:06.605Z,66.70
2019-06-20T20:05:14.871Z,66.60
2019-06-20T20:07:57.834Z,66.50
2019-06-20T20:10:54.211Z,66.50
2019-06-20T20:13:48.822Z,66.60
2019-06-20T20:16:43.495Z,66.70
2019-06-20T20:19:39.589Z,66.90
2019-06-20T20:22:34.685Z,67.00
2019-06-20T20:25:30.175Z,67.10
2019-06-20T20:28:26.027Z,67.30
2019-06-20T20:31:20.954Z,67.40
2019-06-20T20:34:16.110Z,67.50
2019-06-20T20:37:11.104Z,67.50
2019-06-20T20:40:06.342Z,67.70
2019-06-20T20:43:01.756Z,67.70
2019-06-20T20:45:56.902Z,67.90
2019-06-20T20:48:51.930Z,68.10
2019-06-20T20:51:47.020Z,68.10
2019-06-20T20:54:41.912Z,68.20
2019-06-20T20:57:37.302Z,68.30
2019-06-20T21:00:36.248Z,68.30
2019-06-20T21:03:32.437Z,68.40
2019-06-20T21:06:28.544Z,68.50
2019-06-20T21:09:24.475Z,68.60
2019-06-20T21:12:19.066Z,68.70
2019-06-20T21:15:15.843Z,69.00
2019-06-20T21:18:10.333Z,69.10
2019-06-20T21:21:05.533Z,69.00
2019-06-20T21:24:00.756Z,69.10
2019-06-20T21:26:55.910Z,69.10
2019-06-20T21:29:51.101Z,69.20
2019-06-20T21:32:47.804Z,69.20
2019-06-20T21:35:42.826Z,69.20
2019-06-20T21:38:38.007Z,69.30
2019-06-20T21:41:34.025Z,69.30
2019-06-20T21:44:28.981Z,69.50
2019-06-20T21:47:24.062Z,69.60
2019-06-20T21:50:19.273Z,69.70
2019-06-20T21:53:14.375Z,69.70
2019-06-20T21:56:09.888Z,69.80
2019-06-20T21:59:04.888Z,70.00
2019-06-20T22:02:00.662Z,70.10
2019-06-20T22:04:55.932Z,70.10
2019-06-20T22:07:51.664Z,70.10
2019-06-20T22:10:46.946Z,70.10
2019-06-20T22:13:43.264Z,70.20
2019-06-20T22:16:38.148Z,70.30
2019-06-20T22:19:32.911Z,70.20
2019-06-20T22:22:27.808Z,70.20
2019-06-20T22:25:23.117Z,70.20
2019-06-20T22:28:18.354Z,70.30
2019-06-20T22:31:13.079Z,70.40
2019-06-20T22:34:08.110Z,70.30
2019-06-20T22:37:03.151Z,70.40
2019-06-20T22:39:58.177Z,70.40
2019-06-20T22:42:52.657Z,70.40
2019-06-20T22:45:47.712Z,70.50
2019-06-20T22:48:43.207Z,70.40
2019-06-20T22:51:37.976Z,70.30
2019-06-20T22:54:32.768Z,70.30
2019-06-20T22:57:27.745Z,70.30
2019-06-20T23:00:24.360Z,70.20
2019-06-20T23:03:19.557Z,70.20
2019-06-20T23:06:14.500Z,70.60
2019-06-20T23:09:10.407Z,70.30
2019-06-20T23:12:06.589Z,70.30
2019-06-20T23:15:01.901Z,70.40
2019-06-20T23:17:56.649Z,70.40
2019-06-20T23:21:04.186Z,70.40
2019-06-20T23:23:48.109Z,70.40
2019-06-20T23:26:43.059Z,70.50
2019-06-20T23:29:38.224Z,70.50
2019-06-20T23:32:33.282Z,70.50
2019-06-20T23:35:33.699Z,70.40
2019-06-20T23:38:28.824Z,70.30
2019-06-20T23:41:23.738Z,70.40
2019-06-20T23:44:18.792Z,70.60
2019-06-20T23:47:14.605Z,70.50
2019-06-20T23:50:11.240Z,70.60
2019-06-20T23:53:11.304Z,70.70
2019-06-20T23:56:08.023Z,70.80
2019-06-20T23:59:03.929Z,70.80
